Danville, IA

2:40 AM CST on November 27, 2014 (GMT -0600)
Mount Pleasant Municipal | Change Station
CLOSE
Current Station
Airport
Location: Mount Pleasant,
Elevation: 735 ft
Nearby Weather Stations

Elev 735 ft 40.95 °N, 91.51 °W | Updated 25 minutes ago

Overcast
Overcast
26 °F
Feels Like 18 °F
N
7
Wind Variable Wind from NW

Today
High -- | Low -- °F
--% Chance of Precip.
Yesterday
High -- | Low -- °F
Precip. -- in
7:06 AM 4:39 PM
Waxing Crescent, 27% visible
Pressure 30.35 in
Visibility 7.0 miles
Clouds Scattered Clouds 1200 ft
Scattered Clouds 2100 ft
Overcast 3200 ft
Windchill 18 °F
Dew Point 24 °F
Humidity 92%
Rainfall 0.00 in
Snow Depth Not available.
UV 0 out of 12
Pollen .10 out of 12
Air Quality Not available.
Flu Activity Not available.
METAR KMPZ 270815Z AUTO 31006KT 7SM SCT012 SCT021 OVC032 M03/M05 A3035 RMK AO2 T10351046

More Conditions Fewer Conditions

Pressure 30.35 in
Visibility 7.0 miles
Clouds Scattered Clouds 1200 ft
Scattered Clouds 2100 ft
Overcast 3200 ft
Windchill 18 °F
Dew Point 24 °F
Humidity 92%
Rainfall 0.00 in
Snow Depth Not available.
UV 0 out of 12
Pollen .10 out of 12
Air Quality Not available.
Flu Activity Not available.
METAR KMPZ 270815Z AUTO 31006KT 7SM SCT012 SCT021 OVC032 M03/M05 A3035 RMK AO2 T10351046

More Conditions Fewer Conditions

10-Day Weather Forecast

Almanac

Astronomy

Nov. 27, 2014 Rise Set
Actual Time
Civil Twilight
Nautical Twilight
Astronomical Twilight
Moon
Length of Visible Light
Length of Day
Tomorrow will be .
, % of the Moon is Illuminated

Today's Extremes

State Highs State Lows

Community

WunderPhotos

Upload Photos

1,773,965 photos uploaded!

WunderBlogs® & News

Nearby

Air Quality

  Air Quality AQ Index Pollutant
Not available.

Snow Depth

Station Depth Elevation

Earthquake Activity

City Distance Mag. Time & Date
Minimum magnitude displayed is 2.5.

Coastal Water Temperatures

Place Temperature

Nearby Weather Stations